Time;durP1;ratioP1;P1;durP2;ratioP2;P2;SDS_P1;SDS_P2;PMS_P1;PMS_P2;Temp;Humidity;BMP_temperature;BMP_pressure;BME280_temperature;BME280_humidity;BME280_pressure;Samples;Min_cycle;Max_cycle;Signal;HPM_P1;HPM_P2
2023/02/07 00:01:08;;;;;;;22.73;8.73;;;;;;;4.23;72.70;103043.09;5076402;28;20048;-65
2023/02/07 00:03:36;;;;;;;26.25;8.50;;;;;;;4.35;72.36;103041.38;5077088;28;20072;-65
2023/02/07 00:06:19;;;;;;;24.75;8.52;;;;;;;4.43;71.74;103041.13;5076151;28;20041;-65
2023/02/07 00:08:46;;;;;;;20.42;7.95;;;;;;;4.37;72.06;103035.69;5074770;28;20049;-65
2023/02/07 00:11:15;;;;;;;24.50;8.52;;;;;;;4.36;71.74;103037.56;5076123;28;20071;-65
2023/02/07 00:13:43;;;;;;;26.98;8.65;;;;;;;4.11;71.99;103020.28;5076817;28;20512;-65
2023/02/07 00:16:11;;;;;;;30.45;8.05;;;;;;;4.20;71.83;103021.69;5075170;28;20147;-65
2023/02/07 00:18:39;;;;;;;22.67;7.97;;;;;;;4.41;71.88;103015.13;5075388;28;20404;-64
2023/02/07 00:21:09;;;;;;;22.90;7.90;;;;;;;4.42;71.21;103014.06;5075472;28;20052;-65
2023/02/07 00:23:36;;;;;;;;;;;;;;;4.33;71.51;103015.34;5076925;28;20049;-65
2023/02/07 00:26:05;;;;;;;20.95;7.75;;;;;;;4.38;71.45;103021.84;5075741;28;19920;-65
2023/02/07 00:28:32;;;;;;;22.33;7.50;;;;;;;4.12;71.82;103018.34;5076970;28;20068;-66
2023/02/07 00:31:15;;;;;;;27.38;8.52;;;;;;;4.18;71.71;103023.81;5074445;28;20059;-66
2023/02/07 00:33:44;;;;;;;29.48;9.90;;;;;;;4.16;71.49;103015.00;5076476;28;20056;-65
2023/02/07 00:36:14;;;;;;;23.15;8.20;;;;;;;3.97;72.14;103012.34;5074425;28;20495;-65
2023/02/07 00:38:42;;;;;;;23.42;8.02;;;;;;;4.04;72.40;103005.81;5076312;28;20064;-65
2023/02/07 00:41:13;;;;;;;23.52;8.30;;;;;;;4.06;71.73;103009.13;5075573;28;20128;-66
2023/02/07 00:43:41;;;;;;;29.95;8.10;;;;;;;4.02;71.82;103007.06;5074945;28;20102;-66
2023/02/07 00:46:08;;;;;;;23.65;8.02;;;;;;;3.80;73.07;103016.56;5075633;28;20372;-65
2023/02/07 00:48:38;;;;;;;23.38;7.65;;;;;;;3.82;72.99;103017.19;5075044;28;20079;-66
2023/02/07 00:51:08;;;;;;;28.55;9.43;;;;;;;3.92;72.68;103012.97;5073767;28;20052;-65
2023/02/07 00:53:36;;;;;;;26.08;8.65;;;;;;;3.83;72.86;103013.41;5058455;28;20048;-64
2023/02/07 00:56:04;;;;;;;24.48;7.82;;;;;;;3.75;73.08;103011.75;5074282;28;20048;-64
2023/02/07 00:58:31;;;;;;;24.15;8.18;;;;;;;3.76;73.00;103018.88;5074740;28;20052;-65
2023/02/07 01:01:00;;;;;;;26.08;8.07;;;;;;;3.87;73.15;103020.94;5073922;28;20051;-65
2023/02/07 01:03:27;;;;;;;21.63;7.82;;;;;;;3.89;72.53;103018.84;5074504;28;20048;-65
2023/02/07 01:05:56;;;;;;;24.67;7.93;;;;;;;3.93;72.41;103025.56;5075235;28;20036;-65
2023/02/07 01:08:25;;;;;;;24.08;8.35;;;;;;;3.96;71.91;103011.47;5074163;28;20049;-65
2023/02/07 01:10:52;;;;;;;28.67;8.57;;;;;;;3.87;72.57;103031.84;5074024;28;20500;-65
2023/02/07 01:13:20;;;;;;;18.95;8.05;;;;;;;3.89;72.25;103012.56;5075452;28;20143;-65
2023/02/07 01:15:48;;;;;;;25.17;7.97;;;;;;;3.63;72.71;103010.72;5073765;28;20055;-65
2023/02/07 01:18:16;;;;;;;23.67;8.05;;;;;;;3.71;72.93;103020.56;5075656;28;20053;-65
2023/02/07 01:20:43;;;;;;;21.98;8.02;;;;;;;3.55;73.44;103019.13;5056993;28;20052;-64
2023/02/07 01:23:11;;;;;;;22.75;7.82;;;;;;;3.75;72.88;103017.19;5075594;28;20484;-65
2023/02/07 01:25:40;;;;;;;26.52;7.80;;;;;;;3.61;73.49;103010.09;5056357;28;20389;-65
2023/02/07 01:28:07;;;;;;;24.45;8.43;;;;;;;3.62;73.18;103000.88;5073833;28;20059;-65
2023/02/07 01:30:34;;;;;;;28.10;7.90;;;;;;;3.62;73.68;103005.47;5073152;28;20060;-65
2023/02/07 01:33:02;;;;;;;18.92;7.47;;;;;;;3.52;73.59;103002.34;5074140;28;20048;-65
2023/02/07 01:35:30;;;;;;;23.73;8.23;;;;;;;3.71;73.27;103001.50;5073416;28;20130;-65
2023/02/07 01:37:58;;;;;;;22.00;7.57;;;;;;;3.50;73.70;103010.75;5057410;28;20546;-65
2023/02/07 01:40:26;;;;;;;18.38;8.00;;;;;;;3.53;73.52;102996.69;5074297;28;20606;-65
2023/02/07 01:42:53;;;;;;;18.85;7.38;;;;;;;3.64;73.26;103001.50;5075325;28;20049;-65
2023/02/07 01:45:22;;;;;;;20.05;7.68;;;;;;;3.60;73.37;103004.84;5040262;28;20059;-65
2023/02/07 01:47:51;;;;;;;28.65;8.07;;;;;;;3.58;73.76;103005.06;5074023;28;20056;-64
2023/02/07 01:50:19;;;;;;;19.85;7.38;;;;;;;3.56;73.42;103006.34;5073183;28;20053;-65
2023/02/07 01:52:47;;;;;;;22.52;7.90;;;;;;;3.56;73.44;102995.44;5057300;28;20060;-64
2023/02/07 01:55:18;;;;;;;22.80;8.00;;;;;;;3.59;73.59;102995.84;5073226;28;20052;-65
2023/02/07 01:57:46;;;;;;;29.10;9.13;;;;;;;3.62;73.11;102992.69;5072991;28;20067;-65
2023/02/07 02:00:14;;;;;;;22.65;7.72;;;;;;;3.62;73.42;102979.06;5073324;28;20044;-64
2023/02/07 02:02:42;;;;;;;25.80;8.98;;;;;;;3.66;73.39;102990.38;5053697;28;20060;-65
2023/02/07 02:05:12;;;;;;;23.15;8.23;;;;;;;3.63;73.43;102988.91;5055392;28;20048;-65
2023/02/07 02:07:39;;;;;;;19.60;7.93;;;;;;;3.61;73.53;102991.00;5074640;28;20052;-65
2023/02/07 02:10:19;;;;;;;24.83;8.57;;;;;;;3.45;74.00;102995.00;5073672;28;20044;-65
2023/02/07 02:13:06;;;;;;;24.48;8.32;;;;;;;3.42;74.24;102989.16;5074846;28;20040;-65
2023/02/07 02:16:16;;;;;;;22.98;9.25;;;;;;;3.33;74.90;102983.06;5073356;28;20044;-65
2023/02/07 02:19:12;;;;;;;24.95;8.00;;;;;;;3.39;74.70;102978.69;5074489;28;20052;-65
2023/02/07 02:21:58;;;;;;;25.00;8.52;;;;;;;3.50;74.21;102977.22;5056401;28;20091;-64
2023/02/07 02:24:34;;;;;;;25.80;7.90;;;;;;;3.52;74.24;102961.50;5074985;28;20056;-65
2023/02/07 02:27:23;;;;;;;19.10;7.68;;;;;;;3.36;74.74;102973.66;5074590;28;20049;-64
2023/02/07 02:30:05;;;;;;;19.90;8.38;;;;;;;3.32;74.70;102970.53;5075077;28;20052;-65
2023/02/07 02:32:51;;;;;;;24.05;8.65;;;;;;;3.39;74.79;102965.91;5057748;28;20056;-64
2023/02/07 02:35:20;;;;;;;19.73;7.35;;;;;;;3.26;74.91;102971.34;5055241;28;20049;-65
2023/02/07 02:37:47;;;;;;;18.00;7.38;;;;;;;3.29;74.96;102968.22;5060143;28;20041;-65
2023/02/07 02:40:27;;;;;;;20.58;8.05;;;;;;;3.27;75.30;102948.53;5057959;28;20064;-64
2023/02/07 02:43:10;;;;;;;20.70;8.07;;;;;;;3.14;75.50;102955.84;5077586;28;20052;-65
2023/02/07 02:45:42;;;;;;;20.50;7.43;;;;;;;3.13;75.91;102968.66;5076952;28;20377;-65
2023/02/07 02:48:10;;;;;;;23.70;8.32;;;;;;;3.24;75.07;102965.28;5061105;28;20048;-65
2023/02/07 02:50:38;;;;;;;21.65;8.10;;;;;;;3.22;75.13;102972.00;5059911;28;20063;-64
2023/02/07 02:53:06;;;;;;;24.23;8.63;;;;;;;3.00;76.34;102970.53;5060866;28;20048;-66
2023/02/07 02:55:48;;;;;;;23.48;8.60;;;;;;;2.96;76.49;102978.28;5076897;28;20045;-65
2023/02/07 02:58:24;;;;;;;20.05;8.48;;;;;;;3.07;76.05;102966.75;5060605;28;20048;-65
2023/02/07 03:01:14;;;;;;;23.20;8.77;;;;;;;3.12;75.94;102974.31;5076525;28;20056;-65
2023/02/07 03:04:23;;;;;;;23.73;8.02;;;;;;;3.19;75.61;102981.41;5060368;28;20471;-65
2023/02/07 03:07:02;;;;;;;24.73;9.10;;;;;;;3.18;75.98;102960.69;5077631;28;20409;-64
2023/02/07 03:09:39;;;;;;;21.92;8.20;;;;;;;3.11;76.17;102961.72;5076839;28;20305;-65
2023/02/07 03:12:38;;;;;;;23.63;8.90;;;;;;;3.23;75.70;102962.75;5077526;28;20048;-65
2023/02/07 03:15:18;;;;;;;19.25;7.90;;;;;;;3.17;75.80;102960.91;5060477;28;20048;-65
2023/02/07 03:18:08;;;;;;;19.40;8.40;;;;;;;3.12;75.70;102964.22;5076726;28;20500;-65
2023/02/07 03:20:52;;;;;;;22.85;9.60;;;;;;;3.07;75.71;102955.84;5059518;28;20045;-64
2023/02/07 03:23:20;;;;;;;24.13;8.63;;;;;;;2.95;76.45;102946.66;5059967;28;20052;-64
2023/02/07 03:25:50;;;;;;;30.30;10.70;;;;;;;2.84;77.09;102941.00;5059567;28;20055;-65
2023/02/07 03:28:19;;;;;;;22.33;9.13;;;;;;;2.93;76.75;102950.63;5077798;28;20404;-65
2023/02/07 03:30:49;;;;;;;24.80;8.70;;;;;;;2.97;76.82;102946.44;5077326;28;20055;-65
2023/02/07 03:33:18;;;;;;;23.38;9.00;;;;;;;2.99;76.46;102949.78;5059797;28;20381;-65
2023/02/07 03:36:07;;;;;;;24.60;9.82;;;;;;;2.86;76.71;102957.97;5075713;28;20048;-65
2023/02/07 03:38:35;;;;;;;18.23;7.97;;;;;;;2.82;76.99;102964.84;5077685;28;20060;-65
2023/02/07 03:41:07;;;;;;;25.73;9.23;;;;;;;2.99;76.69;102957.94;5076907;28;20048;-65
2023/02/07 03:43:37;;;;;;;21.08;8.73;;;;;;;2.89;76.55;102963.81;5073446;28;20048;-66
2023/02/07 03:46:07;;;;;;;28.88;9.88;;;;;;;2.98;76.45;102965.28;5075656;28;20067;-65
2023/02/07 03:48:35;;;;;;;26.20;10.50;;;;;;;3.10;75.97;102974.50;5075913;28;20060;-65
2023/02/07 03:51:02;;;;;;;26.42;9.88;;;;;;;3.14;75.86;102980.34;5076196;28;20137;-64
2023/02/07 03:53:29;;;;;;;30.75;10.40;;;;;;;2.99;76.33;102980.56;5077139;28;20399;-65
2023/02/07 03:55:57;;;;;;;20.95;8.98;;;;;;;3.14;76.17;102973.03;5075654;28;20047;-71
2023/02/07 03:58:24;;;;;;;22.75;9.48;;;;;;;3.09;75.66;102980.16;5076071;28;20151;-72
2023/02/07 04:00:51;;;;;;;27.70;9.82;;;;;;;2.97;76.13;102969.06;5075572;28;20051;-72
2023/02/07 04:03:19;;;;;;;31.60;10.45;;;;;;;3.16;75.85;102975.53;5077037;28;20059;-72
2023/02/07 04:05:48;;;;;;;31.95;10.68;;;;;;;3.14;75.38;102978.47;5074881;28;20126;-72
2023/02/07 04:08:15;;;;;;;19.75;9.85;;;;;;;3.19;75.33;102978.69;5077499;28;20052;-72
2023/02/07 04:10:43;;;;;;;21.88;9.77;;;;;;;2.85;76.65;102972.59;5076848;28;20067;-72
2023/02/07 04:13:10;;;;;;;23.70;10.10;;;;;;;2.89;76.70;102982.03;5076807;28;20492;-72
2023/02/07 04:15:38;;;;;;;29.83;11.20;;;;;;;3.01;76.33;102981.22;5075101;28;20135;-73
2023/02/07 04:18:05;;;;;;;29.60;10.63;;;;;;;2.91;76.39;102985.38;5075706;28;20060;-72
2023/02/07 04:20:32;;;;;;;31.63;10.02;;;;;;;2.90;76.55;102978.25;5074933;28;20059;-72
2023/02/07 04:23:00;;;;;;;23.65;10.05;;;;;;;2.79;76.87;102973.44;5076490;28;20048;-72
2023/02/07 04:25:27;;;;;;;24.90;9.95;;;;;;;2.71;76.66;102969.03;5076203;28;20059;-73
2023/02/07 04:27:54;;;;;;;25.17;9.40;;;;;;;2.88;76.52;102966.72;5076714;28;20051;-71
2023/02/07 04:30:22;;;;;;;22.52;9.18;;;;;;;2.92;76.60;102979.72;5074944;28;20048;-72
2023/02/07 04:32:49;;;;;;;28.75;9.65;;;;;;;2.98;76.05;102986.22;5076336;28;20487;-71
2023/02/07 04:35:16;;;;;;;26.42;10.52;;;;;;;3.01;75.47;102985.81;5076089;28;20048;-72
2023/02/07 04:37:44;;;;;;;22.50;9.40;;;;;;;2.79;76.04;102982.41;5076628;28;20055;-71
2023/02/07 04:40:11;;;;;;;22.73;9.82;;;;;;;2.89;75.66;102992.91;5076266;28;20053;-73
2023/02/07 04:42:38;;;;;;;24.95;9.70;;;;;;;2.91;75.82;102988.94;5057791;28;20048;-72
2023/02/07 04:45:05;;;;;;;22.02;9.60;;;;;;;3.00;75.44;102992.31;5079781;28;20044;-73
2023/02/07 04:47:33;;;;;;;20.40;9.35;;;;;;;2.94;75.16;102990.41;5057872;28;20060;-73
2023/02/07 04:50:01;;;;;;;21.77;9.40;;;;;;;2.99;75.26;102991.47;5076239;28;20044;-72
2023/02/07 04:52:28;;;;;;;21.60;8.95;;;;;;;3.03;75.05;102992.69;5074435;28;20040;-71
2023/02/07 04:54:55;;;;;;;23.85;9.57;;;;;;;3.07;74.72;102999.41;5076624;28;20052;-72
2023/02/07 04:57:22;;;;;;;21.25;8.98;;;;;;;3.00;74.85;103000.47;5075822;28;20447;-73
2023/02/07 04:59:50;;;;;;;25.02;8.77;;;;;;;2.99;75.06;102999.63;5076210;28;20055;-72
2023/02/07 05:02:17;;;;;;;22.10;9.40;;;;;;;2.83;75.28;102996.44;5074272;28;20056;-71
2023/02/07 05:04:44;;;;;;;24.55;9.57;;;;;;;2.90;75.45;102998.16;5075997;28;20049;-72
2023/02/07 05:07:12;;;;;;;25.23;9.65;;;;;;;3.03;74.81;102991.88;5073861;28;20052;-73
2023/02/07 05:09:39;;;;;;;20.67;9.15;;;;;;;2.97;75.15;102989.97;5074432;28;20056;-72
2023/02/07 05:12:06;;;;;;;25.55;9.25;;;;;;;3.01;74.98;103002.13;5073964;28;20048;-72
2023/02/07 05:14:34;;;;;;;25.10;9.63;;;;;;;2.87;75.20;103006.72;5075754;28;20416;-71
2023/02/07 05:17:01;;;;;;;28.63;10.23;;;;;;;2.78;75.23;103012.56;5075322;28;20547;-72
2023/02/07 05:19:28;;;;;;;27.63;10.27;;;;;;;2.83;75.47;103015.50;5075588;28;20044;-72
2023/02/07 05:21:56;;;;;;;21.20;9.25;;;;;;;2.68;75.95;103012.13;5075000;28;20060;-72
2023/02/07 05:24:23;;;;;;;23.55;9.73;;;;;;;2.94;75.46;103015.75;5074189;28;20056;-72
2023/02/07 05:26:51;;;;;;;23.25;9.90;;;;;;;2.58;76.22;103007.06;5074959;28;20044;-72
2023/02/07 05:29:18;;;;;;;23.75;9.90;;;;;;;2.45;76.56;103015.19;5057816;28;20056;-72
2023/02/07 05:34:33;;;;;;;26.63;9.80;;;;;;;2.35;77.40;103008.47;5075176;28;20056;-72
2023/02/07 05:37:00;;;;;;;22.88;10.57;;;;;;;2.34;77.55;103017.69;5074853;28;20044;-72
2023/02/07 05:39:27;;;;;;;28.20;10.27;;;;;;;2.39;77.60;103013.28;5075305;28;20040;-72
2023/02/07 05:41:54;;;;;;;26.67;10.75;;;;;;;2.52;76.62;103007.06;5074004;28;20040;-71
2023/02/07 05:44:22;;;;;;;24.85;9.70;;;;;;;2.42;76.63;102996.56;5057602;28;20357;-72
2023/02/07 05:46:49;;;;;;;25.10;9.60;;;;;;;2.39;76.55;103002.41;5074843;28;20063;-71
2023/02/07 05:49:18;;;;;;;24.23;10.10;;;;;;;2.29;76.94;102999.22;5074968;28;20049;-71
2023/02/07 05:51:46;;;;;;;27.77;10.23;;;;;;;2.33;76.95;103010.53;5074273;28;20441;-71
2023/02/07 05:54:13;;;;;;;23.98;10.07;;;;;;;2.47;76.27;103007.69;5075039;28;20048;-71
2023/02/07 05:56:40;;;;;;;24.52;9.30;;;;;;;2.42;76.01;103017.50;5074903;28;20051;-72
2023/02/07 05:59:08;;;;;;;23.67;9.88;;;;;;;2.37;76.08;103011.81;5073283;28;20052;-72
2023/02/07 06:01:35;;;;;;;24.50;9.70;;;;;;;2.15;77.11;103011.94;5074476;28;20048;-72
2023/02/07 06:04:03;;;;;;;24.40;9.85;;;;;;;2.16;76.89;103001.91;5073333;28;20062;-72
2023/02/07 06:06:31;;;;;;;20.85;9.50;;;;;;;2.17;77.15;103015.31;5055648;28;20052;-71
2023/02/07 06:08:58;;;;;;;26.73;10.30;;;;;;;2.35;76.64;103022.06;5073586;28;20041;-73
2023/02/07 06:11:25;;;;;;;23.02;10.15;;;;;;;2.35;76.40;103024.78;5074762;28;20507;-72
2023/02/07 06:13:53;;;;;;;29.42;10.23;;;;;;;2.37;76.13;103030.84;5074782;28;20043;-72
2023/02/07 06:16:20;;;;;;;25.30;10.25;;;;;;;2.38;76.17;103017.06;5072310;28;20048;-73
2023/02/07 06:18:47;;;;;;;23.40;9.68;;;;;;;2.30;75.99;103019.97;5064593;28;20045;-73
2023/02/07 06:21:15;;;;;;;22.65;10.02;;;;;;;2.16;76.66;103021.75;5063700;28;20052;-73
2023/02/07 06:23:42;;;;;;;22.33;9.85;;;;;;;2.10;77.09;103025.31;5073360;28;20049;-71
2023/02/07 06:26:09;;;;;;;27.17;9.48;;;;;;;2.38;76.49;103024.38;5073477;28;20056;-72
2023/02/07 06:28:37;;;;;;;21.02;9.05;;;;;;;2.29;76.00;103016.41;5073735;28;20059;-72
2023/02/07 06:31:04;;;;;;;23.45;9.90;;;;;;;2.23;76.06;103024.53;5075110;28;20048;-72
2023/02/07 06:33:31;;;;;;;23.40;9.80;;;;;;;2.15;76.56;103032.84;5074668;28;20051;-72
2023/02/07 06:35:59;;;;;;;22.00;10.00;;;;;;;2.24;76.11;103035.19;5074567;28;20041;-73
2023/02/07 06:38:26;;;;;;;26.27;10.15;;;;;;;2.28;75.80;103039.16;5073603;28;20059;-72
2023/02/07 06:40:54;;;;;;;21.75;9.38;;;;;;;2.30;75.61;103050.69;5073160;28;20048;-72
2023/02/07 06:43:21;;;;;;;24.65;10.23;;;;;;;2.06;75.86;103039.47;5075042;28;20045;-71
2023/02/07 06:45:49;;;;;;;24.63;10.73;;;;;;;2.21;75.90;103053.78;5074758;28;20050;-71
2023/02/07 06:48:16;;;;;;;21.77;9.63;;;;;;;2.06;75.91;103042.19;5075250;28;20044;-73
2023/02/07 06:50:43;;;;;;;25.13;9.73;;;;;;;2.18;75.93;103038.72;5074140;28;20049;-72
2023/02/07 06:53:11;;;;;;;25.83;9.60;;;;;;;2.29;75.50;103050.91;5072421;28;20499;-72
2023/02/07 06:55:38;;;;;;;21.92;8.73;;;;;;;2.41;74.89;103054.72;5073928;28;20047;-73
2023/02/07 06:58:07;;;;;;;20.77;9.82;;;;;;;2.02;75.30;103043.66;5073508;28;20052;-72
2023/02/07 07:00:34;;;;;;;26.55;9.68;;;;;;;2.14;75.32;103031.19;5074253;28;20062;-73
2023/02/07 07:03:02;;;;;;;21.50;9.65;;;;;;;2.17;75.11;103044.34;5057854;28;20373;-71
2023/02/07 07:05:30;;;;;;;22.98;9.23;;;;;;;2.23;75.28;103047.09;5058894;28;20060;-73
2023/02/07 07:07:57;;;;;;;22.88;9.02;;;;;;;2.25;74.40;103058.63;5056663;28;20049;-73
2023/02/07 07:10:25;;;;;;;20.63;9.10;;;;;;;2.17;75.00;103064.22;5056769;28;20045;-73
2023/02/07 07:12:52;;;;;;;21.67;9.25;;;;;;;2.05;75.50;103078.59;5064143;28;20049;-74
2023/02/07 07:15:19;;;;;;;25.17;10.00;;;;;;;2.00;75.19;103087.34;5067163;28;20068;-75
2023/02/07 07:17:47;;;;;;;20.50;9.50;;;;;;;2.07;74.84;103077.34;5070867;28;20041;-72
2023/02/07 07:20:14;;;;;;;21.50;8.95;;;;;;;2.02;75.16;103087.16;5052853;28;20060;-73
2023/02/07 07:22:42;;;;;;;23.67;8.85;;;;;;;2.06;74.96;103072.94;5071061;28;20053;-76
2023/02/07 07:25:09;;;;;;;22.48;9.75;;;;;;;1.97;74.60;103070.59;5062030;28;20053;-77
2023/02/07 07:27:37;;;;;;;20.80;8.63;;;;;;;2.07;74.66;103074.63;5076871;28;20057;-77
2023/02/07 07:30:05;;;;;;;24.80;9.55;;;;;;;2.17;74.33;103066.09;5065934;28;20055;-73
2023/02/07 07:32:32;;;;;;;27.23;9.93;;;;;;;2.24;74.34;103073.25;5064055;28;20060;-69
2023/02/07 07:35:02;;;;;;;23.83;9.18;;;;;;;2.23;73.94;103065.31;5056570;28;20049;-74
2023/02/07 07:37:29;;;;;;;24.52;9.40;;;;;;;2.14;73.98;103070.03;5070155;28;20053;-73
2023/02/07 07:40:00;;;;;;;23.40;9.20;;;;;;;2.09;74.12;103079.88;5074143;28;20622;-71
2023/02/07 07:42:27;;;;;;;23.95;9.00;;;;;;;1.92;74.32;103078.47;5060519;28;20057;-71
2023/02/07 07:45:27;;;;;;;21.55;9.25;;;;;;;1.96;74.08;103088.78;5060361;28;20059;-72
2023/02/07 07:47:54;;;;;;;22.23;9.27;;;;;;;2.01;73.93;103089.00;5062951;28;20052;-74
2023/02/07 07:50:21;;;;;;;20.02;9.30;;;;;;;2.26;73.47;103092.09;5057894;28;20048;-75
2023/02/07 07:52:49;;;;;;;19.55;8.65;;;;;;;2.24;72.68;103081.41;5063260;28;20048;-74
2023/02/07 07:55:16;;;;;;;17.20;8.35;;;;;;;2.16;72.73;103097.06;5045149;28;20045;-75
2023/02/07 07:57:44;;;;;;;18.98;9.05;;;;;;;2.00;73.12;103081.91;5047377;28;20063;-76
2023/02/07 08:00:12;;;;;;;22.35;9.43;;;;;;;1.99;72.78;103093.81;5061092;28;20053;-76
2023/02/07 08:02:40;;;;;;;17.25;8.52;;;;;;;1.84;73.32;103079.50;5062210;28;20036;-74
2023/02/07 08:05:08;;;;;;;23.52;9.20;;;;;;;1.76;74.11;103086.97;5057710;28;20044;-72
2023/02/07 08:07:38;;;;;;;20.20;8.63;;;;;;;1.92;73.75;103081.19;5067303;28;20060;-73
2023/02/07 08:10:05;;;;;;;18.65;8.35;;;;;;;2.06;73.25;103094.69;5061345;28;20045;-74
2023/02/07 08:12:33;;;;;;;20.02;9.00;;;;;;;2.11;72.43;103089.47;5065548;28;20523;-73
2023/02/07 08:15:00;;;;;;;21.90;9.07;;;;;;;2.09;72.41;103090.75;5044949;28;20040;-74
2023/02/07 08:17:28;;;;;;;17.45;8.57;;;;;;;2.03;72.36;103086.09;5055434;28;20049;-75
2023/02/07 08:19:55;;;;;;;25.70;8.15;;;;;;;2.24;71.41;103086.88;5056365;28;20495;-75
2023/02/07 08:22:22;;;;;;;18.40;7.95;;;;;;;2.14;70.64;103088.25;5041627;28;20083;-75
2023/02/07 08:24:50;;;;;;;24.80;10.43;;;;;;;2.21;71.12;103081.81;5050143;28;20053;-75
2023/02/07 08:27:17;;;;;;;21.40;8.90;;;;;;;2.29;70.60;103106.13;5051970;28;20051;-75
2023/02/07 08:29:45;;;;;;;15.13;8.10;;;;;;;2.44;69.73;103105.16;5058467;28;20044;-73
2023/02/07 08:32:12;;;;;;;17.33;9.55;;;;;;;2.40;69.93;103103.88;5061638;28;20059;-74
2023/02/07 08:34:40;;;;;;;17.77;8.85;;;;;;;2.28;69.72;103104.44;5062318;28;20047;-75
2023/02/07 08:37:08;;;;;;;20.25;8.18;;;;;;;2.45;69.52;103104.94;5058998;28;20048;-74
2023/02/07 08:39:35;;;;;;;17.42;8.45;;;;;;;2.47;69.29;103096.59;5056117;28;20471;-74
2023/02/07 08:42:07;;;;;;;19.85;8.73;;;;;;;2.32;69.21;103091.28;5057854;28;20059;-76
2023/02/07 08:44:35;;;;;;;21.92;7.75;;;;;;;2.19;69.29;103096.66;5060036;28;20061;-73
2023/02/07 08:47:03;;;;;;;18.80;8.07;;;;;;;2.19;70.44;103104.81;5066047;28;20401;-76
2023/02/07 08:49:30;;;;;;;20.17;8.60;;;;;;;2.18;69.94;103120.28;5064876;28;20045;-74
2023/02/07 08:51:58;;;;;;;22.05;8.15;;;;;;;2.39;69.26;103103.03;5061510;28;20384;-75
2023/02/07 08:54:25;;;;;;;19.17;8.05;;;;;;;2.32;68.80;103098.63;5016235;28;20052;-75
2023/02/07 08:56:52;;;;;;;17.42;8.55;;;;;;;2.30;69.19;103109.69;5060072;28;20045;-76
2023/02/07 08:59:20;;;;;;;14.70;7.70;;;;;;;2.16;69.60;103094.34;5054495;28;20076;-76
2023/02/07 09:01:47;;;;;;;15.60;7.55;;;;;;;2.33;68.38;103105.72;5057788;28;20079;-74
2023/02/07 09:04:15;;;;;;;16.67;8.63;;;;;;;2.42;68.03;103094.47;5046925;28;20556;-74
2023/02/07 09:06:42;;;;;;;12.55;7.30;;;;;;;2.58;67.88;103101.47;5061695;28;20060;-74
2023/02/07 09:09:09;;;;;;;19.08;7.72;;;;;;;2.58;67.42;103099.56;5057224;28;20044;-73
2023/02/07 09:11:37;;;;;;;18.80;7.97;;;;;;;2.57;67.07;103103.34;5055999;28;20053;-73
2023/02/07 09:14:05;;;;;;;14.45;7.13;;;;;;;2.43;66.79;103093.44;5071411;28;20125;-71
2023/02/07 09:16:32;;;;;;;16.25;8.02;;;;;;;2.35;66.94;103104.50;5067202;28;20561;-73
2023/02/07 09:19:00;;;;;;;16.55;7.50;;;;;;;2.43;67.31;103117.91;5072404;28;20056;-72
2023/02/07 09:21:27;;;;;;;15.77;7.97;;;;;;;2.55;66.74;103116.28;5052195;28;20056;-72
2023/02/07 09:23:55;;;;;;;13.10;7.00;;;;;;;2.61;66.73;103110.06;5075758;28;20044;-73
2023/02/07 09:26:23;;;;;;;13.50;7.43;;;;;;;2.54;66.37;103117.34;5070114;28;20049;-73
2023/02/07 09:28:51;;;;;;;14.65;7.78;;;;;;;2.61;66.18;103109.22;5075076;28;20049;-73
2023/02/07 09:31:19;;;;;;;13.23;7.10;;;;;;;2.59;65.76;103116.72;5075067;28;20166;-72
2023/02/07 09:33:46;;;;;;;11.80;7.13;;;;;;;2.63;65.69;103123.44;5066686;28;20048;-72
2023/02/07 09:36:18;;;;;;;17.85;7.68;;;;;;;2.55;65.79;103129.91;5074720;28;20407;-73
2023/02/07 09:38:46;;;;;;;15.48;8.27;;;;;;;2.68;65.66;103120.97;5076269;28;20040;-76
2023/02/07 09:41:43;;;;;;;15.35;7.82;;;;;;;2.77;65.63;103125.19;5067642;28;20503;-73
2023/02/07 09:44:24;;;;;;;14.45;7.95;;;;;;;2.80;64.76;103124.78;5057945;28;20065;-72
2023/02/07 09:46:59;;;;;;;16.65;7.75;;;;;;;2.89;64.15;103134.44;5068009;28;20041;-73
2023/02/07 09:49:36;;;;;;;13.18;7.50;;;;;;;2.88;64.29;103130.03;5071254;28;20045;-73
2023/02/07 09:52:10;;;;;;;18.17;7.60;;;;;;;3.13;63.99;103145.63;5066053;28;20045;-73
2023/02/07 09:54:41;;;;;;;18.20;8.65;;;;;;;3.35;63.52;103135.41;5060339;28;20668;-73
2023/02/07 09:57:17;;;;;;;19.08;8.57;;;;;;;3.31;63.02;103137.69;5061418;28;20455;-73
2023/02/07 10:00:01;;;;;;;14.07;8.02;;;;;;;3.38;62.70;103143.19;5050111;28;20041;-73
2023/02/07 10:02:32;;;;;;;15.52;7.40;;;;;;;3.41;62.66;103140.88;5074057;28;20048;-73
2023/02/07 10:05:05;;;;;;;16.02;7.90;;;;;;;3.28;61.76;103134.53;5069852;28;20052;-73
2023/02/07 10:07:32;;;;;;;15.90;6.95;;;;;;;5.39;65.15;103121.03;5072479;28;20075;-74
2023/02/07 10:10:00;;;;;;;12.38;6.80;;;;;;;4.62;58.85;103118.50;5067263;28;20053;-73
2023/02/07 10:12:47;;;;;;;13.00;7.15;;;;;;;3.66;59.66;103132.91;5067478;28;20531;-73
2023/02/07 10:15:21;;;;;;;14.02;7.55;;;;;;;3.52;60.71;103146.75;5060729;28;20494;-72
2023/02/07 10:18:07;;;;;;;14.45;8.20;;;;;;;3.54;61.08;103141.94;5069265;28;20049;-73
2023/02/07 10:21:08;;;;;;;19.92;8.57;;;;;;;3.45;61.39;103139.41;5069140;28;20045;-73
2023/02/07 10:23:48;;;;;;;15.77;7.72;;;;;;;3.60;60.69;103143.81;5063206;28;20060;-71
2023/02/07 10:26:31;;;;;;;14.32;7.57;;;;;;;3.18;61.50;103154.00;5069632;28;20056;-72
2023/02/07 10:29:12;;;;;;;15.13;7.63;;;;;;;3.25;61.38;103138.53;5054259;28;20381;-73
2023/02/07 10:31:43;;;;;;;15.52;8.23;;;;;;;3.47;61.12;103136.47;5057666;28;20053;-73
2023/02/07 10:34:26;;;;;;;14.85;7.68;;;;;;;3.35;61.06;103132.66;5067588;28;20053;-75
2023/02/07 10:36:56;;;;;;;14.75;7.43;;;;;;;3.44;61.11;103135.00;5035665;28;20049;-73
2023/02/07 10:39:32;;;;;;;16.88;8.20;;;;;;;3.28;60.70;103135.38;5067375;28;20607;-74
2023/02/07 10:41:59;;;;;;;17.25;7.50;;;;;;;3.36;60.99;103137.09;5069515;28;20562;-73
2023/02/07 10:44:28;;;;;;;15.88;7.18;;;;;;;3.54;60.77;103131.84;5065431;28;20047;-75
2023/02/07 10:47:03;;;;;;;21.52;7.15;;;;;;;3.64;60.58;103129.59;5073827;28;20055;-74
2023/02/07 10:49:32;;;;;;;16.25;8.00;;;;;;;3.86;60.35;103125.59;5052190;28;20518;-75
2023/02/07 10:52:27;;;;;;;16.25;7.80;;;;;;;3.75;59.33;103131.66;5051769;28;20056;-74
2023/02/07 10:55:03;;;;;;;23.98;8.50;;;;;;;3.73;59.39;103132.94;5076693;28;20048;-75
2023/02/07 10:57:31;;;;;;;15.20;7.72;;;;;;;3.68;59.30;103130.00;5074226;28;20064;-73
2023/02/07 10:59:58;;;;;;;15.90;7.53;;;;;;;3.70;59.32;103136.06;5069501;28;20041;-75
2023/02/07 11:02:27;;;;;;;12.65;7.97;;;;;;;3.92;58.75;103130.22;5076680;28;20046;-73
2023/02/07 11:04:56;;;;;;;14.98;7.85;;;;;;;3.94;58.49;103133.53;5071293;28;20051;-74
2023/02/07 11:07:24;;;;;;;18.63;8.05;;;;;;;3.96;58.64;103134.19;5054662;28;20052;-75
2023/02/07 11:09:51;;;;;;;14.32;8.15;;;;;;;3.78;59.37;103131.28;5076579;28;20048;-73
2023/02/07 11:12:21;;;;;;;17.65;8.57;;;;;;;4.26;59.23;103123.66;5054408;28;20048;-74
2023/02/07 11:15:00;;;;;;;15.25;8.50;;;;;;;4.13;58.86;103131.88;5066501;28;20047;-76
2023/02/07 11:17:28;;;;;;;12.77;7.68;;;;;;;4.09;58.24;103139.63;5052340;28;20055;-74
2023/02/07 11:19:56;;;;;;;14.32;7.97;;;;;;;4.20;57.07;103129.97;5070006;28;20049;-75
2023/02/07 11:22:23;;;;;;;14.68;8.13;;;;;;;4.20;57.64;103127.25;5060713;28;20060;-74
2023/02/07 11:24:52;;;;;;;18.30;9.07;;;;;;;4.33;57.42;103130.78;5072410;28;20060;-75
2023/02/07 11:27:21;;;;;;;15.45;8.13;;;;;;;4.24;57.35;103118.41;5076633;28;20048;-71
2023/02/07 11:29:57;;;;;;;18.75;7.97;;;;;;;4.24;57.31;103109.38;5071461;28;20369;-71
2023/02/07 11:32:26;;;;;;;17.70;8.98;;;;;;;4.39;57.36;103104.53;5058731;28;20052;-73
2023/02/07 11:35:01;;;;;;;16.47;8.40;;;;;;;4.57;57.13;103105.50;5064950;28;20047;-75
2023/02/07 11:37:35;;;;;;;13.65;7.88;;;;;;;4.65;55.70;103098.97;5075179;28;20056;-76
2023/02/07 11:40:18;;;;;;;13.57;8.70;;;;;;;4.36;56.37;103096.75;5074383;28;20041;-75
2023/02/07 11:42:56;;;;;;;14.70;8.27;;;;;;;4.52;56.27;103099.84;5076126;28;20049;-75